createdAt,value
2022-12-19T00:00:32.454Z,92.07
2022-12-19T00:03:00.759Z,95.89
2022-12-19T00:05:29.220Z,93.19
2022-12-19T00:07:57.520Z,94.16
2022-12-19T00:10:27.269Z,95.53
2022-12-19T00:12:56.962Z,100.00
2022-12-19T00:15:25.218Z,100.00
2022-12-19T00:17:53.459Z,96.08
2022-12-19T00:20:21.851Z,98.10
2022-12-19T00:22:51.047Z,94.52
2022-12-19T00:25:19.417Z,94.62
2022-12-19T00:27:48.903Z,94.61
2022-12-19T00:30:18.723Z,93.97
2022-12-19T00:32:47.862Z,92.13
2022-12-19T00:35:16.297Z,92.26
2022-12-19T00:37:49.208Z,92.37
2022-12-19T00:40:17.979Z,93.59
2022-12-19T00:42:51.735Z,93.93
2022-12-19T00:45:25.991Z,94.30
2022-12-19T00:47:54.210Z,94.96
2022-12-19T00:50:22.452Z,94.42
2022-12-19T00:52:50.736Z,93.18
2022-12-19T00:55:19.540Z,92.74
2022-12-19T00:57:48.584Z,94.26
2022-12-19T01:00:18.566Z,92.32
2022-12-19T01:02:48.344Z,93.96
2022-12-19T01:05:16.766Z,92.97
2022-12-19T01:07:45.061Z,92.79
2022-12-19T01:10:13.408Z,92.96
2022-12-19T01:12:46.478Z,92.65
2022-12-19T01:15:16.235Z,97.03
2022-12-19T01:17:45.193Z,93.04
2022-12-19T01:20:19.361Z,92.88
2022-12-19T01:22:58.873Z,91.64
2022-12-19T01:25:28.712Z,92.90
2022-12-19T01:27:57.924Z,94.92
2022-12-19T01:30:26.600Z,91.78
2022-12-19T01:32:56.052Z,92.64
2022-12-19T01:35:26.068Z,92.61
2022-12-19T01:38:08.196Z,89.64
2022-12-19T01:40:38.971Z,92.21
2022-12-19T01:43:08.072Z,88.43
2022-12-19T01:45:43.597Z,93.20
2022-12-19T01:48:19.049Z,93.38
2022-12-19T01:51:01.726Z,89.62
2022-12-19T01:53:36.268Z,92.36
2022-12-19T01:56:14.142Z,94.32
2022-12-19T01:58:47.362Z,90.70
2022-12-19T02:01:18.266Z,88.55
2022-12-19T02:03:47.388Z,92.90
2022-12-19T02:06:20.925Z,92.11
2022-12-19T02:08:50.271Z,91.72
2022-12-19T02:11:18.767Z,90.86
2022-12-19T02:13:47.524Z,93.59
2022-12-19T02:16:29.072Z,92.29
2022-12-19T02:19:09.039Z,92.52
2022-12-19T02:21:51.340Z,93.02
2022-12-19T02:25:02.038Z,91.83
2022-12-19T02:28:11.974Z,98.74
2022-12-19T02:30:53.895Z,91.29
2022-12-19T02:33:32.922Z,90.92
2022-12-19T02:36:09.568Z,92.57
2022-12-19T02:38:46.204Z,93.31
2022-12-19T02:41:21.402Z,90.21
2022-12-19T02:43:58.072Z,91.55
2022-12-19T02:46:30.194Z,99.13
2022-12-19T02:48:59.419Z,96.59
2022-12-19T02:51:27.658Z,93.58
2022-12-19T02:53:55.950Z,93.00
2022-12-19T02:56:44.302Z,91.64
2022-12-19T02:59:33.982Z,94.03
2022-12-19T03:02:08.659Z,94.06
2022-12-19T03:04:45.733Z,90.53
2022-12-19T03:07:24.146Z,92.56
2022-12-19T03:10:00.009Z,93.29
2022-12-19T03:12:34.070Z,90.19
2022-12-19T03:15:03.785Z,90.55
2022-12-19T03:17:37.743Z,90.57
2022-12-19T03:20:12.343Z,97.24
2022-12-19T03:22:40.707Z,90.49
2022-12-19T03:25:09.924Z,90.03
2022-12-19T03:27:40.719Z,88.76
2022-12-19T03:30:12.218Z,87.31
2022-12-19T03:32:44.851Z,89.63
2022-12-19T03:35:18.914Z,87.91
2022-12-19T03:37:50.384Z,95.60
2022-12-19T03:40:21.651Z,90.63
2022-12-19T03:43:11.105Z,86.24
2022-12-19T03:45:49.272Z,89.96
2022-12-19T03:48:23.827Z,90.30
2022-12-19T03:51:02.287Z,86.22
2022-12-19T03:53:42.902Z,88.14
2022-12-19T03:56:18.930Z,88.85
2022-12-19T03:58:53.511Z,88.56
2022-12-19T04:01:22.913Z,87.86
2022-12-19T04:03:53.358Z,88.04
2022-12-19T04:06:22.051Z,86.84
2022-12-19T04:08:50.565Z,87.39
2022-12-19T04:11:21.941Z,87.62
2022-12-19T04:13:54.624Z,88.70
2022-12-19T04:16:30.229Z,87.21
2022-12-19T04:19:04.582Z,87.70
2022-12-19T04:21:38.289Z,87.06
2022-12-19T04:24:12.254Z,86.61
2022-12-19T04:26:42.437Z,90.68
2022-12-19T04:29:14.919Z,87.46
2022-12-19T04:31:44.791Z,85.06
2022-12-19T04:34:15.817Z,86.01
2022-12-19T04:36:44.134Z,85.05
2022-12-19T04:39:12.371Z,90.26
2022-12-19T04:41:40.644Z,88.06
2022-12-19T04:44:09.042Z,86.69
2022-12-19T04:46:37.363Z,85.88
2022-12-19T04:49:05.637Z,84.27
2022-12-19T04:51:35.560Z,85.54
2022-12-19T04:54:03.741Z,84.39
2022-12-19T04:56:31.998Z,84.33
2022-12-19T04:59:01.358Z,83.30
2022-12-19T05:01:29.832Z,83.29
2022-12-19T05:04:04.071Z,84.09
2022-12-19T05:06:33.394Z,82.53
2022-12-19T05:09:03.060Z,82.19
2022-12-19T05:11:31.418Z,83.29
2022-12-19T05:14:00.448Z,82.87
2022-12-19T05:16:28.790Z,83.21
2022-12-19T05:18:57.274Z,83.32
2022-12-19T05:21:25.966Z,87.31
2022-12-19T05:23:54.314Z,83.47
2022-12-19T05:26:24.095Z,84.16
2022-12-19T05:28:52.332Z,84.66
2022-12-19T05:31:22.668Z,83.36
2022-12-19T05:33:51.453Z,83.31
2022-12-19T05:36:20.286Z,83.96
2022-12-19T05:38:48.630Z,83.70
2022-12-19T05:41:18.939Z,81.89
2022-12-19T05:43:55.101Z,81.94
2022-12-19T05:46:24.689Z,80.90
2022-12-19T05:48:53.127Z,81.32
2022-12-19T05:51:22.247Z,80.03
2022-12-19T05:53:50.480Z,80.22
2022-12-19T05:56:20.311Z,79.98
2022-12-19T05:58:50.905Z,80.29
2022-12-19T06:01:21.271Z,79.75
2022-12-19T06:03:49.767Z,79.73
2022-12-19T06:06:19.841Z,80.40
2022-12-19T06:08:48.577Z,78.27
2022-12-19T06:11:16.805Z,78.42
2022-12-19T06:13:45.063Z,77.93
2022-12-19T06:16:16.068Z,78.96
2022-12-19T06:18:45.957Z,78.51
2022-12-19T06:21:17.023Z,79.46
2022-12-19T06:23:46.076Z,79.36
2022-12-19T06:26:19.588Z,78.72
2022-12-19T06:28:48.759Z,78.58
2022-12-19T06:31:19.652Z,78.65
2022-12-19T06:33:47.889Z,79.77
2022-12-19T06:36:20.090Z,82.30
2022-12-19T06:38:48.364Z,79.53
2022-12-19T06:41:34.140Z,81.97
2022-12-19T06:44:03.424Z,79.87
2022-12-19T06:46:33.557Z,79.85
2022-12-19T06:49:02.145Z,78.01
2022-12-19T06:51:31.081Z,78.95
2022-12-19T06:53:59.493Z,78.03
2022-12-19T06:56:28.225Z,78.82
2022-12-19T06:58:56.575Z,76.64
2022-12-19T07:01:38.882Z,77.30
2022-12-19T07:04:12.756Z,76.92
2022-12-19T07:06:45.968Z,76.88
2022-12-19T07:09:17.306Z,76.24
2022-12-19T07:11:45.663Z,75.15
2022-12-19T07:14:13.910Z,75.50
2022-12-19T07:16:42.908Z,75.57
2022-12-19T07:19:13.164Z,74.34
2022-12-19T07:21:41.732Z,73.96
2022-12-19T07:24:11.299Z,73.48
2022-12-19T07:26:39.896Z,72.03
2022-12-19T07:29:08.588Z,72.87
2022-12-19T07:31:37.243Z,73.04
2022-12-19T07:34:05.703Z,74.33
2022-12-19T07:36:35.438Z,72.36
2022-12-19T07:39:03.822Z,72.02
2022-12-19T07:41:32.296Z,72.80
2022-12-19T07:44:01.069Z,72.06
2022-12-19T07:46:30.872Z,72.91
2022-12-19T07:49:02.138Z,71.84
2022-12-19T07:51:30.419Z,72.82
2022-12-19T07:54:00.726Z,71.89
2022-12-19T07:56:30.214Z,71.92
2022-12-19T07:58:58.623Z,74.07
2022-12-19T08:01:28.249Z,71.85
2022-12-19T08:03:58.356Z,69.86
2022-12-19T08:06:27.983Z,69.43
2022-12-19T08:08:57.248Z,68.44
2022-12-19T08:11:29.537Z,67.86
2022-12-19T08:13:59.622Z,70.99
2022-12-19T08:16:29.222Z,69.28
2022-12-19T08:18:57.587Z,69.42
2022-12-19T08:21:26.351Z,67.70
2022-12-19T08:23:54.714Z,68.45
2022-12-19T08:26:26.057Z,69.02
2022-12-19T08:28:57.577Z,70.40
2022-12-19T08:31:28.002Z,67.34
2022-12-19T08:33:58.471Z,69.77
2022-12-19T08:36:27.231Z,68.26
2022-12-19T08:38:56.146Z,68.69
2022-12-19T08:41:24.717Z,67.39
2022-12-19T08:43:55.505Z,66.96
2022-12-19T08:46:24.564Z,70.44
2022-12-19T08:48:53.077Z,66.43
2022-12-19T08:51:21.376Z,65.10
2022-12-19T08:53:49.676Z,66.86
2022-12-19T08:56:20.932Z,71.06
2022-12-19T08:58:49.909Z,63.09
2022-12-19T09:01:24.116Z,63.48
2022-12-19T09:04:41.907Z,70.58
2022-12-19T09:06:40.972Z,62.85
2022-12-19T09:09:09.328Z,61.55
2022-12-19T09:11:47.291Z,60.84
2022-12-19T09:14:21.017Z,61.77
2022-12-19T09:16:51.404Z,60.49
2022-12-19T09:19:19.944Z,68.13
2022-12-19T09:21:48.239Z,61.92
2022-12-19T09:24:16.533Z,57.71
2022-12-19T09:26:46.027Z,57.14
2022-12-19T09:29:20.562Z,54.54
2022-12-19T09:31:56.554Z,54.68
2022-12-19T09:34:33.226Z,53.00
2022-12-19T09:37:07.478Z,55.56
2022-12-19T09:39:36.558Z,55.09
2022-12-19T09:42:22.476Z,55.00
2022-12-19T09:45:05.976Z,55.57
2022-12-19T09:47:40.645Z,56.02
2022-12-19T09:50:28.117Z,55.85
2022-12-19T09:53:01.814Z,61.16
2022-12-19T09:55:35.251Z,58.09
2022-12-19T09:58:09.339Z,59.13
2022-12-19T10:00:44.061Z,62.08
2022-12-19T10:03:23.083Z,58.12
2022-12-19T10:06:40.411Z,57.31
2022-12-19T10:09:56.807Z,59.25
2022-12-19T10:12:38.589Z,58.94
2022-12-19T10:14:55.045Z,57.52
2022-12-19T10:17:32.357Z,56.32
2022-12-19T10:20:16.223Z,55.86
2022-12-19T10:22:57.457Z,56.97
2022-12-19T10:25:40.600Z,57.60
2022-12-19T10:28:34.041Z,59.96
2022-12-19T10:31:21.014Z,58.24
2022-12-19T10:33:57.057Z,58.28
2022-12-19T10:36:49.153Z,58.26
2022-12-19T10:39:25.821Z,57.34
2022-12-19T10:41:59.128Z,58.93
2022-12-19T10:44:31.860Z,59.53
2022-12-19T10:47:00.274Z,60.51
2022-12-19T10:49:31.015Z,57.25
2022-12-19T10:52:02.570Z,59.54
2022-12-19T10:54:41.183Z,58.48
2022-12-19T10:57:20.994Z,57.67
2022-12-19T10:59:59.954Z,57.66
2022-12-19T11:02:44.792Z,71.44
2022-12-19T11:05:28.368Z,58.59
2022-12-19T11:08:19.652Z,57.08
2022-12-19T11:13:21.202Z,56.86
2022-12-19T11:18:55.213Z,58.31
2022-12-19T11:22:06.783Z,57.19
2022-12-19T11:29:18.727Z,56.24
2022-12-19T11:29:54.531Z,56.07
2022-12-19T11:30:36.553Z,57.72
2022-12-19T11:30:46.073Z,56.12
2022-12-19T11:34:06.317Z,59.61
2022-12-19T11:36:40.566Z,57.84
2022-12-19T11:39:17.936Z,56.80
2022-12-19T11:41:52.608Z,58.07
2022-12-19T11:44:30.411Z,56.61
2022-12-19T11:47:07.082Z,55.74
2022-12-19T11:49:42.244Z,55.67
2022-12-19T11:53:02.442Z,56.06
2022-12-19T11:55:20.203Z,55.67
2022-12-19T11:57:50.360Z,54.70
2022-12-19T12:00:21.857Z,55.46
2022-12-19T12:03:18.968Z,55.15
2022-12-19T12:05:48.171Z,54.93
2022-12-19T12:09:56.069Z,56.87
2022-12-19T12:17:46.250Z,56.42
2022-12-19T12:26:25.936Z,56.43
2022-12-19T12:30:59.851Z,56.16
2022-12-19T12:31:04.716Z,54.70
2022-12-19T12:31:29.275Z,56.56
2022-12-19T12:31:44.954Z,57.43
2022-12-19T12:32:02.266Z,57.99
2022-12-19T12:35:40.504Z,59.84
2022-12-19T12:38:45.957Z,56.69
2022-12-19T12:41:48.315Z,57.89
2022-12-19T12:44:16.816Z,57.51
2022-12-19T12:46:50.187Z,57.75
2022-12-19T12:49:38.787Z,58.48
2022-12-19T12:52:10.180Z,58.44
2022-12-19T12:54:42.921Z,60.36
2022-12-19T12:57:19.712Z,65.40
2022-12-19T12:59:49.821Z,57.83
2022-12-19T13:02:22.466Z,57.61
2022-12-19T13:05:01.043Z,61.09
2022-12-19T13:07:34.969Z,57.55
2022-12-19T13:10:23.779Z,58.28
2022-12-19T13:13:02.801Z,57.21
2022-12-19T13:15:40.391Z,57.76
2022-12-19T13:18:29.844Z,58.36
2022-12-19T13:21:00.321Z,57.57
2022-12-19T13:23:56.523Z,60.10
2022-12-19T13:26:51.228Z,58.60
2022-12-19T13:29:55.269Z,57.53
2022-12-19T13:32:24.646Z,58.32
2022-12-19T13:35:04.736Z,58.50
2022-12-19T13:39:59.500Z,61.31
2022-12-19T13:40:57.006Z,59.41
2022-12-19T13:43:46.567Z,58.70
2022-12-19T13:46:30.350Z,58.64
2022-12-19T13:49:04.666Z,59.65
2022-12-19T13:51:44.493Z,59.64
2022-12-19T13:54:25.185Z,60.04
2022-12-19T13:56:54.709Z,59.46
2022-12-19T13:59:25.973Z,62.21
2022-12-19T14:01:55.978Z,58.40
2022-12-19T14:04:30.289Z,59.80
2022-12-19T14:07:01.156Z,59.46
2022-12-19T14:11:28.290Z,58.02
2022-12-19T14:13:57.165Z,59.78
2022-12-19T14:15:35.157Z,59.62
2022-12-19T14:18:21.916Z,59.48
2022-12-19T14:22:10.308Z,59.30
2022-12-19T14:24:10.593Z,59.98
2022-12-19T14:28:19.050Z,61.17
2022-12-19T14:29:56.191Z,59.65
2022-12-19T14:33:40.093Z,60.28
2022-12-19T14:36:12.600Z,59.85
2022-12-19T14:39:19.954Z,59.17
2022-12-19T14:41:08.895Z,60.34
2022-12-19T14:43:59.171Z,59.85
2022-12-19T14:54:08.899Z,63.86
2022-12-19T14:54:25.676Z,60.16
2022-12-19T14:54:32.371Z,64.29
2022-12-19T14:56:12.508Z,64.99
2022-12-19T14:58:56.225Z,61.55
2022-12-19T15:01:26.484Z,60.25
2022-12-19T15:04:49.168Z,60.03
2022-12-19T15:07:07.807Z,60.65
2022-12-19T15:10:59.049Z,60.81
2022-12-19T15:14:47.963Z,63.22
2022-12-19T15:15:45.941Z,60.20
2022-12-19T15:18:25.374Z,60.73
2022-12-19T15:20:57.067Z,60.80
2022-12-19T15:23:25.947Z,61.64
2022-12-19T15:26:04.484Z,63.15
2022-12-19T15:28:40.080Z,62.80
2022-12-19T15:31:27.046Z,62.04
2022-12-19T15:34:32.987Z,61.86
2022-12-19T15:36:45.908Z,62.92
2022-12-19T15:39:15.205Z,63.28
2022-12-19T15:41:44.689Z,67.49
2022-12-19T15:44:17.806Z,62.76
2022-12-19T15:46:49.360Z,61.86
2022-12-19T15:49:20.640Z,62.60
2022-12-19T15:51:49.623Z,63.08
2022-12-19T15:57:07.888Z,63.20
2022-12-19T15:59:40.054Z,63.84
2022-12-19T16:02:18.896Z,71.63
2022-12-19T16:04:51.386Z,63.83
2022-12-19T16:07:22.829Z,63.33
2022-12-19T16:09:51.438Z,64.90
2022-12-19T16:12:22.073Z,64.52
2022-12-19T16:14:57.312Z,64.21
2022-12-19T16:17:26.684Z,64.33
2022-12-19T16:19:56.486Z,63.99
2022-12-19T16:22:26.591Z,63.89
2022-12-19T16:24:56.100Z,64.38
2022-12-19T16:27:26.772Z,64.53
2022-12-19T16:29:56.034Z,64.87
2022-12-19T16:32:25.718Z,64.50
2022-12-19T16:34:55.649Z,63.76
2022-12-19T16:37:30.173Z,64.25
2022-12-19T16:40:00.516Z,64.01
2022-12-19T16:42:30.712Z,66.18
2022-12-19T16:44:59.153Z,65.09
2022-12-19T16:47:27.502Z,65.20
2022-12-19T16:49:57.237Z,65.12
2022-12-19T16:52:25.520Z,65.56
2022-12-19T16:54:55.122Z,65.33
2022-12-19T16:57:23.565Z,64.42
2022-12-19T16:59:52.383Z,65.30
2022-12-19T17:02:40.685Z,65.23
2022-12-19T17:05:17.557Z,65.16
2022-12-19T17:07:46.368Z,64.95
2022-12-19T17:10:16.822Z,64.40
2022-12-19T17:12:48.076Z,63.99
2022-12-19T17:15:25.553Z,64.06
2022-12-19T17:17:55.568Z,65.05
2022-12-19T17:20:28.836Z,65.05
2022-12-19T17:22:57.139Z,65.09
2022-12-19T17:25:27.704Z,64.65
2022-12-19T17:27:57.263Z,63.94
2022-12-19T17:30:25.701Z,66.19
2022-12-19T17:32:56.925Z,65.54
2022-12-19T17:35:30.259Z,65.43
2022-12-19T17:37:59.202Z,64.96
2022-12-19T17:40:30.680Z,64.74
2022-12-19T17:42:59.430Z,63.46
2022-12-19T17:45:29.852Z,64.80
2022-12-19T17:48:03.084Z,65.08
2022-12-19T17:50:37.500Z,64.71
2022-12-19T17:53:06.091Z,64.65
2022-12-19T17:55:34.644Z,63.81
2022-12-19T17:58:02.935Z,64.42
2022-12-19T18:00:33.579Z,64.84
2022-12-19T18:03:05.609Z,64.62
2022-12-19T18:05:37.133Z,64.84
2022-12-19T18:08:05.743Z,64.55
2022-12-19T18:10:34.135Z,64.23
2022-12-19T18:13:02.456Z,63.79
2022-12-19T18:15:30.848Z,64.29
2022-12-19T18:17:59.201Z,64.42
2022-12-19T18:20:32.043Z,65.39
2022-12-19T18:23:03.986Z,64.41
2022-12-19T18:25:35.252Z,64.32
2022-12-19T18:28:03.819Z,63.79
2022-12-19T18:30:32.261Z,64.35
2022-12-19T18:33:03.062Z,64.49
2022-12-19T18:35:35.241Z,63.23
2022-12-19T18:38:08.379Z,63.66
2022-12-19T18:40:36.721Z,63.50
2022-12-19T18:43:05.452Z,63.65
2022-12-19T18:45:37.307Z,64.17
2022-12-19T18:48:08.708Z,62.51
2022-12-19T18:50:37.021Z,63.86
2022-12-19T18:53:12.856Z,64.25
2022-12-19T18:55:41.129Z,63.57
2022-12-19T18:58:09.397Z,63.85
2022-12-19T19:00:40.013Z,63.75
2022-12-19T19:03:16.204Z,63.46
2022-12-19T19:05:45.035Z,63.83
2022-12-19T19:08:18.084Z,63.29
2022-12-19T19:10:47.785Z,63.41
2022-12-19T19:13:17.103Z,63.62
2022-12-19T19:15:49.436Z,63.88
2022-12-19T19:18:20.948Z,63.55
2022-12-19T19:20:55.651Z,62.84
2022-12-19T19:23:33.725Z,62.81
2022-12-19T19:26:02.449Z,62.35
2022-12-19T19:28:33.627Z,62.40
2022-12-19T19:31:02.658Z,62.74
2022-12-19T19:33:38.723Z,63.15
2022-12-19T19:36:12.577Z,64.77
2022-12-19T19:38:44.769Z,63.42
2022-12-19T19:41:13.613Z,63.13
2022-12-19T19:43:41.944Z,64.72
2022-12-19T19:46:10.614Z,63.32
2022-12-19T19:48:41.435Z,63.70
2022-12-19T19:51:10.226Z,62.94
2022-12-19T19:53:38.467Z,64.26
2022-12-19T19:56:08.920Z,62.85
2022-12-19T19:58:37.244Z,63.31
2022-12-19T20:01:09.253Z,63.33
2022-12-19T20:03:37.818Z,62.75
2022-12-19T20:06:06.406Z,63.32
2022-12-19T20:08:39.638Z,63.58
2022-12-19T20:11:10.957Z,62.94
2022-12-19T20:13:40.246Z,62.43
2022-12-19T20:16:10.420Z,62.58
2022-12-19T20:18:40.232Z,61.59
2022-12-19T20:21:12.718Z,61.01
2022-12-19T20:23:43.355Z,62.06
2022-12-19T20:26:15.728Z,61.29
2022-12-19T20:28:48.906Z,62.28
2022-12-19T20:31:18.790Z,61.57
2022-12-19T20:33:48.555Z,61.46
2022-12-19T20:36:17.425Z,62.01
2022-12-19T20:38:46.027Z,61.38
2022-12-19T20:41:16.369Z,61.50
2022-12-19T20:43:45.309Z,61.75
2022-12-19T20:46:18.527Z,60.74
2022-12-19T20:48:47.435Z,61.87
2022-12-19T20:51:17.115Z,60.64
2022-12-19T20:53:46.668Z,61.75
2022-12-19T20:56:17.752Z,61.55
2022-12-19T20:58:47.143Z,61.62
2022-12-19T21:01:17.877Z,61.09
2022-12-19T21:03:48.670Z,59.85
2022-12-19T21:06:19.438Z,61.57
2022-12-19T21:08:48.135Z,60.75
2022-12-19T21:11:17.798Z,61.48
2022-12-19T21:13:46.417Z,60.48
2022-12-19T21:16:16.466Z,61.04
2022-12-19T21:18:46.992Z,63.64
2022-12-19T21:21:17.861Z,61.99
2022-12-19T21:23:46.529Z,59.81
2022-12-19T21:26:14.838Z,60.79
2022-12-19T21:28:44.871Z,60.06
2022-12-19T21:31:18.475Z,60.17
2022-12-19T21:33:47.510Z,60.52
2022-12-19T21:36:19.264Z,60.24
2022-12-19T21:38:47.612Z,61.04
2022-12-19T21:41:19.184Z,61.21
2022-12-19T21:43:51.894Z,60.10
2022-12-19T21:46:21.123Z,61.50
2022-12-19T21:48:51.456Z,60.78
2022-12-19T21:51:21.680Z,60.98
2022-12-19T21:53:52.766Z,60.76
2022-12-19T21:56:25.527Z,62.85
2022-12-19T21:58:57.319Z,61.14
2022-12-19T22:01:26.232Z,60.85
2022-12-19T22:03:58.729Z,61.30
2022-12-19T22:06:28.578Z,62.06
2022-12-19T22:08:57.113Z,61.40
2022-12-19T22:11:26.180Z,62.01
2022-12-19T22:13:56.024Z,61.84
2022-12-19T22:16:24.470Z,60.52
2022-12-19T22:18:53.197Z,60.61
2022-12-19T22:21:22.414Z,60.33
2022-12-19T22:23:50.793Z,60.74
2022-12-19T22:26:21.441Z,59.92
2022-12-19T22:28:52.560Z,61.06
2022-12-19T22:31:24.266Z,61.11
2022-12-19T22:33:55.126Z,60.15
2022-12-19T22:36:28.354Z,61.16
2022-12-19T22:38:58.329Z,60.40
2022-12-19T22:41:26.844Z,60.89
2022-12-19T22:43:55.658Z,60.15
2022-12-19T22:46:27.535Z,60.41
2022-12-19T22:48:58.185Z,60.93
2022-12-19T22:51:28.100Z,61.50
2022-12-19T22:53:57.205Z,61.61
2022-12-19T22:56:27.629Z,65.23
2022-12-19T22:58:57.632Z,61.74
2022-12-19T23:01:29.333Z,61.85
2022-12-19T23:03:59.276Z,59.83
2022-12-19T23:06:29.997Z,60.74
2022-12-19T23:08:58.532Z,61.34
2022-12-19T23:11:30.562Z,60.74
2022-12-19T23:13:59.120Z,61.35
2022-12-19T23:16:29.176Z,60.86
2022-12-19T23:18:57.603Z,61.53
2022-12-19T23:21:26.425Z,61.36
2022-12-19T23:23:56.556Z,61.69
2022-12-19T23:26:26.238Z,60.25
2022-12-19T23:28:56.528Z,60.39
2022-12-19T23:31:25.151Z,60.36
2022-12-19T23:33:55.164Z,61.01
2022-12-19T23:37:00.323Z,61.14
2022-12-19T23:39:12.556Z,60.20
2022-12-19T23:41:41.126Z,61.08
2022-12-19T23:44:09.852Z,60.63
2022-12-19T23:46:40.212Z,61.17
2022-12-19T23:49:09.847Z,61.13
2022-12-19T23:51:38.176Z,64.15
2022-12-19T23:54:06.560Z,60.88
2022-12-19T23:56:34.845Z,59.57
2022-12-19T23:59:03.651Z,60.30
